South Albemarle, North Carolina
Current Conditions -  °F | °C
As of 7:35 AM on Sunday 21 Dec 2014 (Local Time) from KVUJ Reporting Station
Overcast Overcast  
Wind Chill: 40°   Ceiling: 2800
Heat Index: 40°   Visibility: 10mi
Dew Point: 37°   Wind: 0mph
Humidity: 90%   Direction: NA
Pressure: 30.32"   Gusts: NA
Location:  35.3503°N, 80.2174°W
Report Text: KVUJ 211235Z AUTO 00000KT 10SM OVC028 05/03 A3032 RMK AO2 T00450030
Loading
Personal Weather Stations






























Interactive Weather Map New forecast layout! Learn more

10-Day Weather Forecast

Advertisements
Track Severe Weather on mobile